createdAt,value
2023-08-30T00:00:02.683Z,83.70
2023-08-30T00:02:52.353Z,83.80
2023-08-30T00:05:40.733Z,83.90
2023-08-30T00:08:25.979Z,84.30
2023-08-30T00:11:11.538Z,84.40
2023-08-30T00:14:06.690Z,84.70
2023-08-30T00:16:52.199Z,84.70
2023-08-30T00:19:37.651Z,84.60
2023-08-30T00:22:23.511Z,84.90
2023-08-30T00:25:09.094Z,85.10
2023-08-30T00:27:54.690Z,85.60
2023-08-30T00:30:40.293Z,85.70
2023-08-30T00:33:26.252Z,85.80
2023-08-30T00:36:11.806Z,85.80
2023-08-30T00:38:57.458Z,86.10
2023-08-30T00:41:42.893Z,86.30
2023-08-30T00:44:28.280Z,86.10
2023-08-30T00:47:14.085Z,86.40
2023-08-30T00:49:59.479Z,86.30
2023-08-30T00:52:45.679Z,86.30
2023-08-30T00:55:31.061Z,86.40
2023-08-30T00:58:16.832Z,86.80
2023-08-30T01:01:03.099Z,87.10
2023-08-30T01:03:48.436Z,87.00
2023-08-30T01:06:36.356Z,87.20
2023-08-30T01:09:22.552Z,87.30
2023-08-30T01:12:13.928Z,87.20
2023-08-30T01:15:07.238Z,87.20
2023-08-30T01:17:54.264Z,87.70
2023-08-30T01:20:42.876Z,88.00
2023-08-30T01:23:43.876Z,88.20
2023-08-30T01:27:04.682Z,88.10
2023-08-30T01:29:51.328Z,88.30
2023-08-30T01:32:37.377Z,88.30
2023-08-30T01:35:24.457Z,88.40
2023-08-30T01:38:11.087Z,88.30
2023-08-30T01:41:00.780Z,88.30
2023-08-30T01:43:48.146Z,88.20
2023-08-30T01:46:34.806Z,88.10
2023-08-30T01:49:21.207Z,88.00
2023-08-30T01:52:08.245Z,87.90
2023-08-30T01:54:56.870Z,87.90
2023-08-30T01:57:42.232Z,87.80
2023-08-30T02:00:27.843Z,88.00
2023-08-30T02:03:14.736Z,87.90
2023-08-30T02:06:09.934Z,88.10
2023-08-30T02:09:02.745Z,88.10
2023-08-30T02:11:51.870Z,87.80
2023-08-30T02:14:39.580Z,87.70
2023-08-30T02:17:25.407Z,87.70
2023-08-30T02:20:11.911Z,88.10
2023-08-30T02:23:04.341Z,88.20
2023-08-30T02:25:57.057Z,87.90
2023-08-30T02:28:42.976Z,88.00
2023-08-30T02:31:29.987Z,88.00
2023-08-30T02:34:15.642Z,88.10
2023-08-30T02:37:01.252Z,88.10
2023-08-30T02:39:46.991Z,87.90
2023-08-30T02:42:32.598Z,87.90
2023-08-30T02:45:18.194Z,88.00
2023-08-30T02:48:04.543Z,88.20
2023-08-30T02:50:49.849Z,88.40
2023-08-30T02:53:35.528Z,88.30
2023-08-30T02:56:21.101Z,88.60
2023-08-30T02:59:06.536Z,88.70
2023-08-30T03:01:51.922Z,88.60
2023-08-30T03:04:39.771Z,88.80
2023-08-30T03:07:25.183Z,89.00
2023-08-30T03:10:13.294Z,88.90
2023-08-30T03:12:58.784Z,89.20
2023-08-30T03:15:44.831Z,89.20
2023-08-30T03:18:30.406Z,89.50
2023-08-30T03:21:15.992Z,89.90
2023-08-30T03:24:01.454Z,89.70
2023-08-30T03:26:46.901Z,89.50
2023-08-30T03:29:32.524Z,89.60
2023-08-30T03:32:19.444Z,89.60
2023-08-30T03:35:07.905Z,89.10
2023-08-30T03:37:53.421Z,88.90
2023-08-30T03:40:40.525Z,88.70
2023-08-30T03:43:26.305Z,88.60
2023-08-30T03:46:13.290Z,88.60
2023-08-30T03:48:58.956Z,88.50
2023-08-30T03:51:44.591Z,88.50
2023-08-30T03:54:30.211Z,88.40
2023-08-30T03:57:15.478Z,88.10
2023-08-30T04:00:01.069Z,87.90
2023-08-30T04:02:48.345Z,87.70
2023-08-30T04:05:35.138Z,87.60
2023-08-30T04:08:20.817Z,87.80
2023-08-30T04:11:06.392Z,87.70
2023-08-30T04:13:53.443Z,87.70
2023-08-30T04:16:39.264Z,87.60
2023-08-30T04:19:26.543Z,87.50
2023-08-30T04:22:12.212Z,87.70
2023-08-30T04:24:57.863Z,87.50
2023-08-30T04:27:43.889Z,87.40
2023-08-30T04:30:29.320Z,87.50
2023-08-30T04:33:15.426Z,87.60
2023-08-30T04:36:01.923Z,87.70
2023-08-30T04:39:00.475Z,87.90
2023-08-30T04:41:48.580Z,87.60
2023-08-30T04:44:34.047Z,87.80
2023-08-30T04:47:19.458Z,87.80
2023-08-30T04:50:05.487Z,87.60
2023-08-30T04:52:52.302Z,87.30
2023-08-30T04:55:37.767Z,87.30
2023-08-30T04:58:23.511Z,87.40
2023-08-30T05:01:09.765Z,87.10
2023-08-30T05:03:57.082Z,86.90
2023-08-30T05:06:42.986Z,87.00
2023-08-30T05:09:29.142Z,87.30
2023-08-30T05:12:14.505Z,87.20
2023-08-30T05:15:00.614Z,87.20
2023-08-30T05:17:47.233Z,87.10
2023-08-30T05:20:32.498Z,87.00
2023-08-30T05:23:18.115Z,86.90
2023-08-30T05:26:03.609Z,87.10
2023-08-30T05:28:49.394Z,87.10
2023-08-30T05:31:35.140Z,86.90
2023-08-30T05:34:40.797Z,86.70
2023-08-30T05:37:38.789Z,86.90
2023-08-30T05:40:45.788Z,86.50
2023-08-30T05:43:31.311Z,86.50
2023-08-30T05:46:17.957Z,86.60
2023-08-30T05:49:04.212Z,86.70
2023-08-30T05:51:50.015Z,86.30
2023-08-30T05:54:37.121Z,86.30
2023-08-30T05:57:23.373Z,85.90
2023-08-30T06:00:09.946Z,85.70
2023-08-30T06:03:01.320Z,85.10
2023-08-30T06:05:46.948Z,84.90
2023-08-30T06:08:32.224Z,84.90
2023-08-30T06:11:17.891Z,85.10
2023-08-30T06:14:03.343Z,84.80
2023-08-30T06:16:49.840Z,84.40
2023-08-30T06:19:35.500Z,84.90
2023-08-30T06:22:21.984Z,84.70
2023-08-30T06:25:07.902Z,84.10
2023-08-30T06:27:59.791Z,84.40
2023-08-30T06:30:45.727Z,84.70
2023-08-30T06:33:31.271Z,84.70
2023-08-30T06:36:18.410Z,84.20
2023-08-30T06:39:04.188Z,84.20
2023-08-30T06:41:49.361Z,84.20
2023-08-30T06:44:34.834Z,84.00
2023-08-30T06:47:20.425Z,84.00
2023-08-30T06:50:06.648Z,83.70
2023-08-30T06:52:51.976Z,83.20
2023-08-30T06:55:38.522Z,82.60
2023-08-30T06:58:23.655Z,82.20
2023-08-30T07:01:09.213Z,82.20
2023-08-30T07:03:54.718Z,82.20
2023-08-30T07:06:40.229Z,82.00
2023-08-30T07:09:29.860Z,82.00
2023-08-30T07:12:15.330Z,81.90
2023-08-30T07:15:00.965Z,81.50
2023-08-30T07:17:53.784Z,81.50
2023-08-30T07:20:51.669Z,81.10
2023-08-30T07:23:37.242Z,81.00
2023-08-30T07:26:22.870Z,81.00
2023-08-30T07:29:10.136Z,81.10
2023-08-30T07:31:55.775Z,80.90
2023-08-30T07:34:41.307Z,80.20
2023-08-30T07:37:26.760Z,79.70
2023-08-30T07:40:13.020Z,79.10
2023-08-30T07:43:04.537Z,78.60
2023-08-30T07:45:50.311Z,78.50
2023-08-30T07:48:35.598Z,77.90
2023-08-30T07:51:21.123Z,77.80
2023-08-30T07:54:06.799Z,77.20
2023-08-30T07:56:52.223Z,76.50
2023-08-30T07:59:38.531Z,76.20
2023-08-30T08:02:23.953Z,75.80
2023-08-30T08:05:09.696Z,74.80
2023-08-30T08:07:55.059Z,74.70
2023-08-30T08:10:40.360Z,74.10
2023-08-30T08:13:26.176Z,73.40
2023-08-30T08:16:11.698Z,73.10
2023-08-30T08:19:00.315Z,72.90
2023-08-30T08:21:45.800Z,72.80
2023-08-30T08:24:31.179Z,71.90
2023-08-30T08:27:16.687Z,71.80
2023-08-30T08:30:02.383Z,71.80
2023-08-30T08:32:51.215Z,71.80
2023-08-30T08:35:36.404Z,72.20
2023-08-30T08:38:22.248Z,72.20
2023-08-30T08:41:08.513Z,72.30
2023-08-30T08:43:55.035Z,72.60
2023-08-30T08:46:42.322Z,72.90
2023-08-30T08:49:30.240Z,72.90
2023-08-30T08:52:29.519Z,72.70
2023-08-30T08:55:18.793Z,72.70
2023-08-30T08:58:05.282Z,72.20
2023-08-30T09:00:51.245Z,72.20
2023-08-30T09:03:37.215Z,72.20
2023-08-30T09:06:24.179Z,72.40
2023-08-30T09:09:10.166Z,72.40
2023-08-30T09:11:55.416Z,72.20
2023-08-30T09:14:40.847Z,72.10
2023-08-30T09:17:40.457Z,71.60
2023-08-30T09:20:26.041Z,71.90
2023-08-30T09:23:21.953Z,71.40
2023-08-30T09:26:07.522Z,70.90
2023-08-30T09:28:52.808Z,70.60
2023-08-30T09:31:40.378Z,70.20
2023-08-30T09:34:28.984Z,68.70
2023-08-30T09:37:24.466Z,68.80
2023-08-30T09:40:10.026Z,68.70
2023-08-30T09:43:10.817Z,68.70
2023-08-30T09:45:59.185Z,67.60
2023-08-30T09:48:45.379Z,67.20
2023-08-30T09:51:31.448Z,67.20
2023-08-30T09:57:10.929Z,65.40
2023-08-30T09:59:57.847Z,64.70
2023-08-30T10:03:01.288Z,64.00
2023-08-30T10:05:52.139Z,63.00
2023-08-30T10:08:40.624Z,62.20
2023-08-30T10:11:27.904Z,61.60
2023-08-30T10:14:14.716Z,62.40
2023-08-30T10:17:04.648Z,61.70
2023-08-30T10:19:52.472Z,63.00
2023-08-30T10:22:39.742Z,62.90
2023-08-30T10:25:29.660Z,61.10
2023-08-30T10:28:15.397Z,60.30
2023-08-30T10:31:00.923Z,60.10
2023-08-30T10:33:56.471Z,60.10
2023-08-30T10:36:43.231Z,58.60
2023-08-30T10:39:41.184Z,58.00
2023-08-30T10:42:26.386Z,58.00
2023-08-30T10:45:14.629Z,58.10
2023-08-30T10:48:00.775Z,58.40
2023-08-30T10:50:46.160Z,58.40
2023-08-30T10:53:32.319Z,58.20
2023-08-30T10:56:18.012Z,57.70
2023-08-30T10:59:03.986Z,58.00
2023-08-30T11:01:50.637Z,58.00
2023-08-30T11:04:42.437Z,57.70
2023-08-30T11:07:28.195Z,57.90
2023-08-30T11:10:14.005Z,57.80
2023-08-30T11:12:59.294Z,58.40
2023-08-30T11:15:44.909Z,57.90
2023-08-30T11:18:31.405Z,57.00
2023-08-30T11:21:17.710Z,57.20
2023-08-30T11:24:05.114Z,57.10
2023-08-30T11:26:54.769Z,56.50
2023-08-30T11:29:41.269Z,57.50
2023-08-30T11:32:26.529Z,57.60
2023-08-30T11:35:12.414Z,57.50
2023-08-30T11:37:59.159Z,57.80
2023-08-30T11:40:45.256Z,58.20
2023-08-30T11:43:30.815Z,58.00
2023-08-30T11:46:17.426Z,57.70
2023-08-30T11:49:03.909Z,56.40
2023-08-30T11:51:50.017Z,56.50
2023-08-30T11:54:35.510Z,56.10
2023-08-30T11:57:22.271Z,56.30
2023-08-30T12:00:14.085Z,56.70
2023-08-30T12:02:59.393Z,56.60
2023-08-30T12:05:51.846Z,56.50
2023-08-30T12:08:37.089Z,56.00
2023-08-30T12:11:22.631Z,56.40
2023-08-30T12:14:08.148Z,56.40
2023-08-30T12:16:53.765Z,56.60
2023-08-30T12:19:41.362Z,56.20
2023-08-30T12:22:48.972Z,56.50
2023-08-30T12:25:35.043Z,56.70
2023-08-30T12:28:20.810Z,56.30
2023-08-30T12:31:06.469Z,56.20
2023-08-30T12:33:52.218Z,56.50
2023-08-30T12:36:37.738Z,57.10
2023-08-30T12:39:23.234Z,58.50
2023-08-30T12:42:10.437Z,59.20
2023-08-30T12:44:55.804Z,60.00
2023-08-30T12:47:41.494Z,59.90
2023-08-30T12:50:27.125Z,60.10
2023-08-30T12:53:13.254Z,60.90
2023-08-30T12:55:58.724Z,60.50
2023-08-30T12:58:44.283Z,60.00
2023-08-30T13:01:30.032Z,58.80
2023-08-30T13:04:15.743Z,58.70
2023-08-30T13:07:01.348Z,59.00
2023-08-30T13:09:46.963Z,57.60
2023-08-30T13:12:32.632Z,57.80
2023-08-30T13:15:18.667Z,58.10
2023-08-30T13:18:04.441Z,57.30
2023-08-30T13:20:49.915Z,57.30
2023-08-30T13:23:35.421Z,57.60
2023-08-30T13:26:21.094Z,57.70
2023-08-30T13:29:06.630Z,57.80
2023-08-30T13:31:52.206Z,56.60
2023-08-30T13:34:37.979Z,57.40
2023-08-30T13:37:24.560Z,56.70
2023-08-30T13:40:10.809Z,57.00
2023-08-30T13:42:56.186Z,57.30
2023-08-30T13:45:41.559Z,57.40
2023-08-30T13:48:27.484Z,57.10
2023-08-30T13:51:12.942Z,56.90
2023-08-30T13:53:58.679Z,57.20
2023-08-30T13:56:44.148Z,57.30
2023-08-30T13:59:29.836Z,57.30
2023-08-30T14:02:15.326Z,56.70
2023-08-30T14:05:00.819Z,56.50
2023-08-30T14:07:47.581Z,57.10
2023-08-30T14:10:34.191Z,57.40
2023-08-30T14:13:19.916Z,57.50
2023-08-30T14:16:05.727Z,57.40
2023-08-30T14:18:50.983Z,57.50
2023-08-30T14:21:36.665Z,57.80
2023-08-30T14:24:22.230Z,58.20
2023-08-30T14:27:08.490Z,58.20
2023-08-30T14:29:54.185Z,57.60
2023-08-30T14:32:39.440Z,58.40
2023-08-30T14:35:25.298Z,59.70
2023-08-30T14:38:11.338Z,60.50
2023-08-30T14:41:01.157Z,60.60
2023-08-30T14:43:46.536Z,60.80
2023-08-30T14:46:32.181Z,61.10
2023-08-30T14:49:17.355Z,62.40
2023-08-30T14:52:03.093Z,61.70
2023-08-30T14:54:48.496Z,61.50
2023-08-30T14:57:33.929Z,64.90
2023-08-30T15:00:19.669Z,69.50
2023-08-30T15:03:05.801Z,69.60
2023-08-30T15:05:58.097Z,68.90
2023-08-30T15:08:43.932Z,68.20
2023-08-30T15:11:29.422Z,67.60
2023-08-30T15:14:15.054Z,68.10
2023-08-30T15:17:00.811Z,68.40
2023-08-30T15:19:46.287Z,69.00
2023-08-30T15:22:33.159Z,69.70
2023-08-30T15:25:19.657Z,70.10
2023-08-30T15:28:05.301Z,70.30
2023-08-30T15:30:52.025Z,70.70
2023-08-30T15:33:37.639Z,71.80
2023-08-30T15:36:23.280Z,74.10
2023-08-30T15:39:09.944Z,76.00
2023-08-30T15:41:55.510Z,77.50
2023-08-30T15:44:41.139Z,80.10
2023-08-30T15:47:27.607Z,81.70
2023-08-30T15:50:13.181Z,82.80
2023-08-30T15:52:58.762Z,84.40
2023-08-30T15:55:44.301Z,86.80
2023-08-30T15:58:30.693Z,91.90
2023-08-30T16:01:17.184Z,96.40
2023-08-30T16:04:02.533Z,98.90
2023-08-30T16:06:48.145Z,98.00
2023-08-30T16:09:33.604Z,99.10
2023-08-30T16:12:19.584Z,99.70
2023-08-30T16:15:05.546Z,99.90
2023-08-30T16:17:51.005Z,99.90
2023-08-30T16:20:36.614Z,99.90
2023-08-30T16:23:22.057Z,99.90
2023-08-30T16:26:07.634Z,99.90
2023-08-30T16:28:53.227Z,99.90
2023-08-30T16:31:38.666Z,99.90
2023-08-30T16:34:24.168Z,99.90
2023-08-30T16:37:09.655Z,99.90
2023-08-30T16:39:55.553Z,99.90
2023-08-30T16:42:40.805Z,99.90
2023-08-30T16:45:26.292Z,99.90
2023-08-30T16:48:13.358Z,99.90
2023-08-30T16:50:58.977Z,99.90
2023-08-30T16:53:44.812Z,99.90
2023-08-30T16:56:30.462Z,99.90
2023-08-30T16:59:15.905Z,99.90
2023-08-30T17:02:01.580Z,99.90
2023-08-30T17:04:47.010Z,99.50
2023-08-30T17:07:32.514Z,99.90
2023-08-30T17:10:18.358Z,99.90
2023-08-30T17:13:03.957Z,99.90
2023-08-30T17:15:49.555Z,99.90
2023-08-30T17:18:37.874Z,99.90
2023-08-30T17:21:25.105Z,99.90
2023-08-30T17:24:10.528Z,99.90
2023-08-30T17:26:58.068Z,99.90
2023-08-30T17:29:43.509Z,99.90
2023-08-30T17:32:29.440Z,99.90
2023-08-30T17:35:15.008Z,99.90
2023-08-30T17:38:01.697Z,99.90
2023-08-30T17:40:47.122Z,99.90
2023-08-30T17:43:32.613Z,99.90
2023-08-30T17:46:18.148Z,99.90
2023-08-30T17:49:03.911Z,99.90
2023-08-30T17:51:49.135Z,99.90
2023-08-30T17:54:36.502Z,99.90
2023-08-30T17:57:21.710Z,99.90
2023-08-30T18:00:10.293Z,99.90
2023-08-30T18:02:57.192Z,99.90
2023-08-30T18:05:42.684Z,99.90
2023-08-30T18:08:28.307Z,99.90
2023-08-30T18:11:17.623Z,99.90
2023-08-30T18:14:02.916Z,99.90
2023-08-30T18:16:48.709Z,99.90
2023-08-30T18:19:34.391Z,99.90
2023-08-30T18:22:19.902Z,99.90
2023-08-30T18:25:05.843Z,99.60
2023-08-30T18:27:51.006Z,98.80
2023-08-30T18:30:36.586Z,99.20
2023-08-30T18:33:23.178Z,99.00
2023-08-30T18:36:08.587Z,98.90
2023-08-30T18:38:55.234Z,98.10
2023-08-30T18:41:41.244Z,97.70
2023-08-30T18:44:26.809Z,97.50
2023-08-30T18:47:18.333Z,97.60
2023-08-30T18:50:04.119Z,97.50
2023-08-30T18:52:49.913Z,97.70
2023-08-30T18:55:35.998Z,97.60
2023-08-30T18:58:22.158Z,97.30
2023-08-30T19:01:07.810Z,96.50
2023-08-30T19:03:53.240Z,96.80
2023-08-30T19:06:38.677Z,96.90
2023-08-30T19:09:24.277Z,97.00
2023-08-30T19:12:09.831Z,97.10
2023-08-30T19:14:55.252Z,97.10
2023-08-30T19:17:42.075Z,98.00
2023-08-30T19:20:27.612Z,97.90
2023-08-30T19:23:13.607Z,94.60
2023-08-30T19:25:59.423Z,95.00
2023-08-30T19:28:46.101Z,95.60
2023-08-30T19:31:35.744Z,96.20
2023-08-30T19:34:22.251Z,95.80
2023-08-30T19:37:07.717Z,95.70
2023-08-30T19:39:54.057Z,95.90
2023-08-30T19:42:40.240Z,95.30
2023-08-30T19:45:25.502Z,95.90
2023-08-30T19:48:11.441Z,96.50
2023-08-30T19:50:57.659Z,96.20
2023-08-30T19:53:43.172Z,95.60
2023-08-30T19:56:29.082Z,95.80
2023-08-30T19:59:14.314Z,95.80
2023-08-30T20:02:00.498Z,94.60
2023-08-30T20:04:46.439Z,95.00
2023-08-30T20:07:32.204Z,94.60
2023-08-30T20:10:17.603Z,92.90
2023-08-30T20:13:03.723Z,92.80
2023-08-30T20:15:59.697Z,93.00
2023-08-30T20:18:45.396Z,93.70
2023-08-30T20:21:30.901Z,92.40
2023-08-30T20:24:17.677Z,92.10
2023-08-30T20:27:02.912Z,91.50
2023-08-30T20:29:48.617Z,92.40
2023-08-30T20:32:34.161Z,91.90
2023-08-30T20:35:20.116Z,92.10
2023-08-30T20:38:05.461Z,91.10
2023-08-30T20:40:50.855Z,90.20
2023-08-30T20:43:36.352Z,90.10
2023-08-30T20:46:22.496Z,90.90
2023-08-30T20:49:08.305Z,90.00
2023-08-30T20:51:53.943Z,90.10
2023-08-30T20:54:39.497Z,90.20
2023-08-30T20:57:26.408Z,91.80
2023-08-30T21:00:13.009Z,91.90
2023-08-30T21:02:58.622Z,93.20
2023-08-30T21:05:43.975Z,93.60
2023-08-30T21:08:29.393Z,94.00
2023-08-30T21:11:14.956Z,94.00
2023-08-30T21:14:00.526Z,93.80
2023-08-30T21:16:46.177Z,93.70
2023-08-30T21:19:31.782Z,94.10
2023-08-30T21:22:17.245Z,94.90
2023-08-30T21:25:04.420Z,94.80
2023-08-30T21:27:51.712Z,94.60
2023-08-30T21:30:44.678Z,95.30
2023-08-30T21:33:30.469Z,94.20
2023-08-30T21:36:16.074Z,93.10
2023-08-30T21:39:12.609Z,93.00
2023-08-30T21:41:57.911Z,93.90
2023-08-30T21:44:43.594Z,94.40
2023-08-30T21:47:29.653Z,94.80
2023-08-30T21:50:15.243Z,91.70
2023-08-30T21:53:01.664Z,92.00
2023-08-30T21:55:46.936Z,91.30
2023-08-30T21:58:32.469Z,92.10
2023-08-30T22:01:18.193Z,92.80
2023-08-30T22:04:06.399Z,92.50
2023-08-30T22:06:51.737Z,92.90
2023-08-30T22:09:37.206Z,92.70
2023-08-30T22:12:23.328Z,93.10
2023-08-30T22:15:14.846Z,92.40
2023-08-30T22:18:01.048Z,92.60
2023-08-30T22:20:46.376Z,93.90
2023-08-30T22:23:31.890Z,93.70
2023-08-30T22:26:17.428Z,94.70
2023-08-30T22:29:03.676Z,94.90
2023-08-30T22:31:49.165Z,94.30
2023-08-30T22:34:35.239Z,93.50
2023-08-30T22:37:21.394Z,92.10
2023-08-30T22:40:09.383Z,91.50
2023-08-30T22:42:55.084Z,91.00
2023-08-30T22:45:40.799Z,91.00
2023-08-30T22:48:26.123Z,89.80
2023-08-30T22:51:11.637Z,90.20
2023-08-30T22:53:57.373Z,91.50
2023-08-30T22:56:45.882Z,92.30
2023-08-30T22:59:31.531Z,93.00
2023-08-30T23:02:18.326Z,93.00
2023-08-30T23:05:06.704Z,92.50
2023-08-30T23:07:52.438Z,92.10
2023-08-30T23:10:37.830Z,92.20
2023-08-30T23:13:23.619Z,92.20
2023-08-30T23:16:09.772Z,92.10
2023-08-30T23:18:55.464Z,92.00
2023-08-30T23:21:41.084Z,92.50
2023-08-30T23:24:26.420Z,92.20
2023-08-30T23:27:11.988Z,92.10
2023-08-30T23:29:57.595Z,92.00
2023-08-30T23:32:44.099Z,91.80
2023-08-30T23:35:32.855Z,91.90
2023-08-30T23:38:18.053Z,92.00
2023-08-30T23:41:03.874Z,92.30
2023-08-30T23:43:49.756Z,92.70
2023-08-30T23:46:35.295Z,93.70
2023-08-30T23:49:20.817Z,92.90
2023-08-30T23:52:06.788Z,93.90
2023-08-30T23:54:53.419Z,93.70
2023-08-30T23:57:41.648Z,94.40
